Terminal Aerodrome Forecast
Issued by NWS

Home | Current Version | Previous Version | Text Only | Print | Product List | Glossary On
Versions: 1 2 3 4 5 6 7 8 9 10 11 12 13 14 15 16 17
222
FTUS43 KLSX 132323
TAFCPS
TAF
KCPS 132323Z 1400/1424 05005KT P6SM OVC070
     FM140600 11007KT P6SM OVC050
     FM141000 12011KT 4SM -SN OVC040
     FM141300 13012KT 2SM -SN OVC015
     FM141800 15011KT 4SM -FZDZSN OVC015=

USA.gov is the U.S. government's official web portal to all federal, state and local government web resources and services.